Time;durP1;ratioP1;P1;durP2;ratioP2;P2;SDS_P1;SDS_P2;PMS_P1;PMS_P2;Temp;Humidity;BMP_temperature;BMP_pressure;BME280_temperature;BME280_humidity;BME280_pressure;Samples;Min_cycle;Max_cycle;Signal;HPM_P1;HPM_P2
2023/02/26 00:02:09;;;;;;;9.20;4.30;;;5.70;99.90;;;;;;5012436;28;20506;-79
2023/02/26 00:04:36;;;;;;;11.93;5.10;;;5.70;99.90;;;;;;5012035;28;20391;-80
2023/02/26 00:07:04;;;;;;;9.60;4.73;;;5.70;99.90;;;;;;5013080;28;20521;-80
2023/02/26 00:09:31;;;;;;;8.43;4.10;;;5.70;99.90;;;;;;4997633;28;20490;-80
2023/02/26 00:11:57;;;;;;;10.70;4.97;;;5.60;99.90;;;;;;4993807;28;20042;-80
2023/02/26 00:14:24;;;;;;;4.60;3.07;;;5.60;99.90;;;;;;4993608;28;20033;-80
2023/02/26 00:17:15;;;;;;;8.93;4.33;;;5.50;99.90;;;;;;4999616;28;20410;-80
2023/02/26 00:19:41;;;;;;;;;;;5.50;99.90;;;;;;5012294;28;20034;-80
2023/02/26 00:22:07;;;;;;;10.73;4.90;;;5.40;99.90;;;;;;5012934;28;19924;-80
2023/02/26 00:24:33;;;;;;;8.10;4.70;;;5.40;99.90;;;;;;5011690;28;20034;-80
2023/02/26 00:27:00;;;;;;;8.57;4.97;;;5.40;99.90;;;;;;5012224;28;20038;-80
2023/02/26 00:29:26;;;;;;;8.67;4.50;;;5.40;99.90;;;;;;5022614;28;20025;-80
2023/02/26 00:31:52;;;;;;;7.67;4.57;;;5.30;99.90;;;;;;5011090;28;20050;-80
2023/02/26 00:34:19;;;;;;;4.80;3.47;;;5.30;99.90;;;;;;5011609;28;20038;-80
2023/02/26 00:36:59;;;;;;;10.20;3.90;;;5.30;99.90;;;;;;5011709;28;20494;-80
2023/02/26 00:39:34;;;;;;;7.60;3.83;;;5.20;99.90;;;;;;5010714;28;20053;-80
2023/02/26 00:42:00;;;;;;;5.10;3.20;;;5.20;99.90;;;;;;5012296;28;20387;-80
2023/02/26 00:44:27;;;;;;;8.00;3.90;;;5.20;99.90;;;;;;5012747;28;20034;-80
2023/02/26 00:47:05;;;;;;;3.20;3.00;;;5.10;99.90;;;;;;5010365;28;20038;-80
2023/02/26 00:49:55;;;;;;;6.43;4.27;;;5.10;99.90;;;;;;5011346;28;20034;-80
2023/02/26 00:52:36;;;;;;;8.80;4.20;;;5.10;99.90;;;;;;5012782;28;20038;-80
2023/02/26 00:55:02;;;;;;;6.40;3.85;;;5.10;99.90;;;;;;5003793;28;20682;-80
2023/02/26 00:57:28;;;;;;;7.30;4.27;;;4.90;99.90;;;;;;5011565;28;20030;-80
2023/02/26 00:59:54;;;;;;;13.43;4.50;;;4.90;99.90;;;;;;5012631;28;20030;-80
2023/02/26 01:02:20;;;;;;;11.93;5.10;;;4.90;99.90;;;;;;5011147;28;20041;-79
2023/02/26 01:04:47;;;;;;;7.10;4.07;;;4.90;99.90;;;;;;5012236;28;20033;-80
2023/02/26 01:07:13;;;;;;;10.93;4.57;;;4.80;99.90;;;;;;5012048;28;20022;-80
2023/02/26 01:09:40;;;;;;;3.80;3.47;;;4.80;99.90;;;;;;5012456;28;20034;-79
2023/02/26 01:12:08;;;;;;;5.90;4.10;;;4.80;99.90;;;;;;5011164;28;20037;-80
2023/02/26 01:14:34;;;;;;;12.30;4.40;;;4.70;99.90;;;;;;5030967;28;20035;-80
2023/02/26 01:17:25;;;;;;;4.67;3.77;;;4.70;99.90;;;;;;4992221;28;20399;-80
2023/02/26 01:19:58;;;;;;;4.07;3.63;;;4.70;99.90;;;;;;5000785;28;20030;-80
2023/02/26 01:22:29;;;;;;;8.87;3.80;;;4.70;99.90;;;;;;5011125;28;20297;-80
2023/02/26 01:25:07;;;;;;;7.88;5.55;;;4.60;99.90;;;;;;5043063;28;20053;-80
2023/02/26 01:27:33;;;;;;;12.20;5.50;;;4.60;99.90;;;;;;5034988;28;20399;-80
2023/02/26 01:29:59;;;;;;;9.87;4.30;;;4.60;99.90;;;;;;5021325;28;20030;-80
2023/02/26 01:32:46;;;;;;;4.57;4.07;;;4.60;99.90;;;;;;5009364;28;20088;-80
2023/02/26 01:35:37;;;;;;;4.23;3.90;;;4.60;99.90;;;;;;4995615;28;20026;-80
2023/02/26 01:38:34;;;;;;;10.15;5.63;;;4.50;99.90;;;;;;5006161;28;20026;-79
2023/02/26 01:41:27;;;;;;;12.37;4.73;;;4.50;99.90;;;;;;4992428;28;20035;-79
2023/02/26 01:44:04;;;;;;;8.80;4.87;;;4.50;99.90;;;;;;4994368;28;20045;-80
2023/02/26 01:46:50;;;;;;;6.27;4.50;;;4.50;99.90;;;;;;5023998;28;20049;-80
2023/02/26 01:49:17;;;;;;;8.97;4.80;;;4.40;99.90;;;;;;5015195;28;20038;-80
2023/02/26 01:51:51;;;;;;;5.47;3.77;;;4.50;99.90;;;;;;5012187;28;20038;-79
2023/02/26 01:54:22;;;;;;;10.27;4.53;;;4.40;99.90;;;;;;5011310;28;20033;-80
2023/02/26 01:56:54;;;;;;;;;;;4.40;99.90;;;;;;5009124;28;20022;-80
2023/02/26 01:59:23;;;;;;;8.15;5.30;;;4.40;99.90;;;;;;4995630;28;19909;-79
2023/02/26 02:01:53;;;;;;;10.30;5.27;;;4.30;99.90;;;;;;5013938;28;20037;-80
2023/02/26 02:04:19;;;;;;;9.65;4.75;;;4.30;99.90;;;;;;5005127;28;20041;-80
2023/02/26 02:06:46;;;;;;;9.07;5.60;;;4.30;99.90;;;;;;5033427;28;20034;-80
2023/02/26 02:09:12;;;;;;;16.50;5.60;;;4.30;99.90;;;;;;5030851;28;20045;-80
2023/02/26 02:11:44;;;;;;;10.73;5.30;;;4.30;99.90;;;;;;5013912;28;20041;-80
2023/02/26 02:14:20;;;;;;;12.33;5.43;;;4.30;99.90;;;;;;5029289;28;20041;-80
2023/02/26 02:17:05;;;;;;;7.63;5.03;;;4.30;99.90;;;;;;5029465;28;20041;-80
2023/02/26 02:19:54;;;;;;;9.13;5.30;;;4.20;99.90;;;;;;5047435;28;20431;-80
2023/02/26 02:22:50;;;;;;;11.67;5.33;;;4.20;99.90;;;;;;5014913;28;20042;-79
2023/02/26 02:25:53;;;;;;;12.73;4.40;;;4.20;99.90;;;;;;4995798;28;20022;-80
2023/02/26 02:28:19;;;;;;;7.07;4.27;;;4.20;99.90;;;;;;5034743;28;20034;-80
2023/02/26 02:31:07;;;;;;;6.40;3.97;;;4.10;99.90;;;;;;4994672;28;20038;-79
2023/02/26 02:33:55;;;;;;;6.43;4.73;;;4.10;99.90;;;;;;5034457;28;20022;-80
2023/02/26 02:36:44;;;;;;;7.80;4.83;;;4.10;99.90;;;;;;5026174;28;20042;-80
2023/02/26 02:39:19;;;;;;;9.70;5.43;;;4.00;99.90;;;;;;5043372;28;20033;-80
2023/02/26 02:41:53;;;;;;;10.23;5.07;;;4.00;99.90;;;;;;5029475;28;20356;-79
2023/02/26 02:44:20;;;;;;;7.77;4.43;;;4.00;99.90;;;;;;5029310;28;20041;-79
2023/02/26 02:46:47;;;;;;;4.13;3.83;;;3.90;99.90;;;;;;5046386;28;20030;-80
2023/02/26 02:49:22;;;;;;;6.53;4.03;;;3.90;99.90;;;;;;5028869;28;20080;-80
2023/02/26 02:51:55;;;;;;;9.87;4.90;;;3.90;99.90;;;;;;5026019;28;20034;-79
2023/02/26 02:54:42;;;;;;;8.40;4.87;;;3.90;99.90;;;;;;5005441;28;20022;-80
2023/02/26 02:57:30;;;;;;;15.63;5.83;;;3.90;99.90;;;;;;5012549;28;20029;-80
2023/02/26 02:59:58;;;;;;;8.83;4.40;;;3.90;99.90;;;;;;5002081;28;20423;-80
2023/02/26 03:02:27;;;;;;;13.43;5.60;;;3.80;99.90;;;;;;4969503;28;20038;-80
2023/02/26 03:04:53;;;;;;;12.57;6.30;;;3.80;99.90;;;;;;4986753;28;20034;-80
2023/02/26 03:07:19;;;;;;;13.40;5.80;;;3.80;99.90;;;;;;4972731;28;20035;-79
2023/02/26 03:09:45;;;;;;;6.37;4.37;;;3.80;99.90;;;;;;4989999;28;20042;-79
2023/02/26 03:12:11;;;;;;;10.63;5.43;;;3.80;99.90;;;;;;4971487;28;20047;-79
2023/02/26 03:14:38;;;;;;;8.83;5.60;;;3.70;99.90;;;;;;4957194;28;20050;-79
2023/02/26 03:17:23;;;;;;;8.43;5.13;;;3.70;99.90;;;;;;4973938;28;20034;-79
2023/02/26 03:19:55;;;;;;;8.80;4.93;;;3.70;99.90;;;;;;4958444;28;20045;-79
2023/02/26 03:22:30;;;;;;;7.57;4.83;;;3.70;99.90;;;;;;4988437;28;20054;-80
2023/02/26 03:25:18;;;;;;;15.10;5.50;;;3.60;99.90;;;;;;4973870;28;20042;-79
2023/02/26 03:27:54;;;;;;;10.50;5.90;;;3.60;99.90;;;;;;4980511;28;20034;-79
2023/02/26 03:30:24;;;;;;;12.10;5.53;;;3.60;99.90;;;;;;5009077;28;20038;-80
2023/02/26 03:32:57;;;;;;;10.27;5.22;;;3.60;99.90;;;;;;5008072;28;20479;-80
2023/02/26 03:35:43;;;;;;;11.57;5.50;;;3.60;99.90;;;;;;4990911;28;20057;-80
2023/02/26 03:38:13;;;;;;;11.40;4.87;;;3.60;99.90;;;;;;5007748;28;20117;-80
2023/02/26 03:40:43;;;;;;;13.83;6.07;;;3.60;99.90;;;;;;5029056;28;20038;-80
2023/02/26 03:43:17;;;;;;;11.33;5.20;;;3.50;99.90;;;;;;5004642;28;20395;-79
2023/02/26 03:45:44;;;;;;;3.47;3.17;;;3.50;99.90;;;;;;5012056;28;20041;-80
2023/02/26 03:48:12;;;;;;;3.77;3.47;;;3.50;99.90;;;;;;5011279;28;20037;-80
2023/02/26 03:50:41;;;;;;;11.37;4.77;;;3.40;99.90;;;;;;5019419;28;20034;-79
2023/02/26 03:53:10;;;;;;;9.70;4.73;;;3.40;99.90;;;;;;5025555;28;20037;-80
2023/02/26 03:55:43;;;;;;;8.73;5.00;;;3.40;99.90;;;;;;5025355;28;20486;-79
2023/02/26 03:58:09;;;;;;;5.90;5.10;;;3.40;99.90;;;;;;5037321;28;20030;-79
2023/02/26 04:00:36;;;;;;;8.03;5.20;;;3.40;99.90;;;;;;5013333;28;20033;-79
2023/02/26 04:03:07;;;;;;;13.13;5.40;;;3.40;99.90;;;;;;5038983;28;20026;-79
2023/02/26 04:05:38;;;;;;;7.05;4.07;;;3.30;99.90;;;;;;4993797;28;20041;-79
2023/02/26 04:08:04;;;;;;;7.20;5.17;;;3.20;99.90;;;;;;5025392;28;20042;-79
2023/02/26 04:10:35;;;;;;;8.50;5.50;;;3.20;99.90;;;;;;4993822;28;20107;-79
2023/02/26 04:13:01;;;;;;;9.18;5.18;;;3.20;99.90;;;;;;5006102;28;20057;-79
2023/02/26 04:15:27;;;;;;;8.10;4.90;;;3.20;99.90;;;;;;5037058;28;20381;-80
2023/02/26 04:17:53;;;;;;;13.77;6.90;;;3.20;99.90;;;;;;5013242;28;20029;-80
2023/02/26 04:20:20;;;;;;;9.73;5.60;;;3.10;99.90;;;;;;5011867;28;20479;-79
2023/02/26 04:22:46;;;;;;;5.00;4.30;;;3.10;99.90;;;;;;5013323;28;20045;-80
2023/02/26 04:25:12;;;;;;;15.13;6.40;;;3.10;99.90;;;;;;5013343;28;20041;-79
2023/02/26 04:27:38;;;;;;;10.83;6.53;;;3.10;99.90;;;;;;5013022;28;20021;-80
2023/02/26 04:30:05;;;;;;;14.10;6.13;;;3.00;99.90;;;;;;5032465;28;20040;-79
2023/02/26 04:32:31;;;;;;;11.97;6.17;;;3.10;99.90;;;;;;5032870;28;20037;-80
2023/02/26 04:34:57;;;;;;;13.93;6.70;;;3.10;99.90;;;;;;5014864;28;20460;-80
2023/02/26 04:37:23;;;;;;;10.20;5.90;;;3.10;99.90;;;;;;5012456;28;20030;-80
2023/02/26 04:39:49;;;;;;;13.37;5.20;;;3.00;99.90;;;;;;5012980;28;20490;-80
2023/02/26 04:42:15;;;;;;;7.47;5.07;;;2.90;99.90;;;;;;5011337;28;20033;-80
2023/02/26 04:44:41;;;;;;;8.03;5.70;;;2.90;99.90;;;;;;5011382;28;20045;-79
2023/02/26 04:47:07;;;;;;;9.37;5.80;;;2.90;99.90;;;;;;5005641;28;20042;-80
2023/02/26 04:49:34;;;;;;;8.00;5.03;;;2.90;99.90;;;;;;4993195;28;20035;-80
2023/02/26 04:52:00;;;;;;;11.67;5.97;;;2.80;99.90;;;;;;4993144;28;20038;-80
2023/02/26 04:54:27;;;;;;;13.23;6.40;;;2.80;99.90;;;;;;4992855;28;20391;-80
2023/02/26 04:56:53;;;;;;;9.70;6.23;;;2.80;99.90;;;;;;5024180;28;20042;-79
2023/02/26 04:59:19;;;;;;;12.87;6.00;;;2.70;99.90;;;;;;4999964;28;20041;-80
2023/02/26 05:01:45;;;;;;;9.37;6.30;;;2.70;99.90;;;;;;5012420;28;20399;-80
2023/02/26 05:04:11;;;;;;;7.23;4.10;;;2.70;99.90;;;;;;5012566;28;20041;-80
2023/02/26 05:06:37;;;;;;;14.53;10.00;;;2.60;99.90;;;;;;5012712;28;20033;-79
2023/02/26 05:09:03;;;;;;;19.80;13.20;;;2.70;99.90;;;;;;5012052;28;20034;-79
2023/02/26 05:11:29;;;;;;;29.40;18.30;;;2.60;99.90;;;;;;5009964;28;20042;-80
2023/02/26 05:13:55;;;;;;;25.03;14.33;;;2.60;99.90;;;;;;5012639;28;20475;-80
2023/02/26 05:16:21;;;;;;;17.57;7.13;;;2.60;99.90;;;;;;5043828;28;20038;-79
2023/02/26 05:18:47;;;;;;;15.77;7.47;;;2.60;99.90;;;;;;5044484;28;20037;-80
2023/02/26 05:21:14;;;;;;;14.33;7.60;;;2.60;99.90;;;;;;5012340;28;20053;-80
2023/02/26 05:23:40;;;;;;;13.83;6.50;;;2.60;99.90;;;;;;5010974;28;20030;-80
2023/02/26 05:26:06;;;;;;;14.77;6.63;;;2.50;99.90;;;;;;5001269;28;20098;-79
2023/02/26 05:28:32;;;;;;;27.10;9.30;;;2.50;99.90;;;;;;5039062;28;20046;-79
2023/02/26 05:30:58;;;;;;;21.30;10.63;;;2.50;99.90;;;;;;5011908;28;20049;-79
2023/02/26 05:33:25;;;;;;;6.80;4.90;;;2.50;99.90;;;;;;5008141;28;20034;-79
2023/02/26 05:35:51;;;;;;;14.23;5.53;;;2.50;99.90;;;;;;4995435;28;20034;-79
2023/02/26 05:38:17;;;;;;;7.03;4.53;;;2.40;99.90;;;;;;4996806;28;20042;-79
2023/02/26 05:40:44;;;;;;;8.43;5.50;;;2.50;99.90;;;;;;5003262;28;20391;-80
2023/02/26 05:43:10;;;;;;;10.83;6.10;;;2.50;99.90;;;;;;5016050;28;20042;-79
2023/02/26 05:45:36;;;;;;;90.10;10.50;;;2.40;99.90;;;;;;5015564;28;20048;-80
2023/02/26 05:48:02;;;;;;;11.03;5.23;;;2.50;99.90;;;;;;5011857;28;20038;-79
2023/02/26 05:50:29;;;;;;;6.20;3.97;;;2.50;99.90;;;;;;5037738;28;20030;-80
2023/02/26 05:52:55;;;;;;;4.37;3.87;;;2.40;99.90;;;;;;5011897;28;20044;-80
2023/02/26 05:55:21;;;;;;;6.60;4.50;;;2.40;99.90;;;;;;5013395;28;20030;-79
2023/02/26 05:57:47;;;;;;;12.67;4.70;;;2.30;99.90;;;;;;5010706;28;20061;-79
2023/02/26 06:00:14;;;;;;;9.17;4.30;;;2.30;99.90;;;;;;5014818;28;20045;-79
2023/02/26 06:02:40;;;;;;;9.43;4.37;;;2.30;99.90;;;;;;5015921;28;20245;-80
2023/02/26 06:05:07;;;;;;;7.77;5.03;;;2.30;99.90;;;;;;5023029;28;20027;-79
2023/02/26 06:07:33;;;;;;;9.80;4.50;;;2.20;99.90;;;;;;5027334;28;20503;-80
2023/02/26 06:09:59;;;;;;;6.07;4.20;;;2.30;99.90;;;;;;5004310;28;20383;-79
2023/02/26 06:12:25;;;;;;;4.87;4.03;;;2.20;99.90;;;;;;5029913;28;20061;-79
2023/02/26 06:14:52;;;;;;;10.10;5.30;;;2.20;99.90;;;;;;4995997;28;20383;-79
2023/02/26 06:17:18;;;;;;;6.57;4.13;;;2.20;99.90;;;;;;4995551;28;20041;-80
2023/02/26 06:19:44;;;;;;;12.70;4.73;;;2.10;99.90;;;;;;4995857;28;20026;-79
2023/02/26 06:22:10;;;;;;;7.37;4.67;;;2.10;99.90;;;;;;5008035;28;20098;-79
2023/02/26 06:24:36;;;;;;;4.43;3.33;;;2.10;99.90;;;;;;4994277;28;20042;-79
2023/02/26 06:27:02;;;;;;;4.30;3.30;;;2.10;99.90;;;;;;5010127;28;20033;-79
2023/02/26 06:29:28;;;;;;;7.30;4.20;;;2.10;99.90;;;;;;5032243;28;20037;-78
2023/02/26 06:31:54;;;;;;;7.73;3.63;;;2.10;99.90;;;;;;5017559;28;20454;-78
2023/02/26 06:34:21;;;;;;;9.40;4.53;;;2.10;99.90;;;;;;5012441;28;20037;-78
2023/02/26 06:36:47;;;;;;;3.67;3.33;;;2.10;99.90;;;;;;5014588;28;20375;-80
2023/02/26 06:39:13;;;;;;;3.67;3.30;;;2.00;99.90;;;;;;5011863;28;20026;-79
2023/02/26 06:41:39;;;;;;;5.57;3.57;;;2.00;99.90;;;;;;5004937;28;20041;-80
2023/02/26 06:44:06;;;;;;;9.33;5.03;;;2.00;99.90;;;;;;5012961;28;20033;-79
2023/02/26 06:46:32;;;;;;;7.70;4.27;;;2.00;99.90;;;;;;5014013;28;20053;-79
2023/02/26 06:48:59;;;;;;;3.30;3.00;;;1.90;99.90;;;;;;5015011;28;20375;-79
2023/02/26 06:51:25;;;;;;;6.80;4.80;;;1.90;99.90;;;;;;5012124;28;20030;-80
2023/02/26 06:53:51;;;;;;;5.37;4.07;;;1.90;99.90;;;;;;5013484;28;20034;-79
2023/02/26 06:56:17;;;;;;;8.40;4.30;;;1.90;99.90;;;;;;5014252;28;20522;-80
2023/02/26 06:58:43;;;;;;;5.70;3.50;;;1.90;99.90;;;;;;5013366;28;20038;-79
2023/02/26 07:01:09;;;;;;;6.67;4.50;;;1.80;99.90;;;;;;5008299;28;20034;-79
2023/02/26 07:03:35;;;;;;;7.23;3.97;;;1.80;99.90;;;;;;4996973;28;20037;-77
2023/02/26 07:06:01;;;;;;;5.07;3.33;;;1.80;99.90;;;;;;4993351;28;20043;-78
2023/02/26 07:08:28;;;;;;;5.63;4.47;;;1.90;99.90;;;;;;5003036;28;20030;-78
2023/02/26 07:10:54;;;;;;;5.27;3.80;;;1.90;99.90;;;;;;4994966;28;20044;-78
2023/02/26 07:13:20;;;;;;;8.00;4.97;;;1.90;99.90;;;;;;4994897;28;20069;-78
2023/02/26 07:15:46;;;;;;;4.10;3.73;;;1.90;99.90;;;;;;5025522;28;20046;-78
2023/02/26 07:18:12;;;;;;;5.50;3.00;;;2.00;99.90;;;;;;4994868;28;20027;-78
2023/02/26 07:20:38;;;;;;;8.80;4.50;;;2.00;99.90;;;;;;4996725;28;20050;-78
2023/02/26 07:23:04;;;;;;;6.10;3.70;;;2.00;99.90;;;;;;5031344;28;20042;-78
2023/02/26 07:25:30;;;;;;;4.90;3.63;;;2.00;99.90;;;;;;4996616;28;20037;-80
2023/02/26 07:27:58;;;;;;;4.00;2.57;;;2.00;99.90;;;;;;5009457;28;20053;-77
2023/02/26 07:30:25;;;;;;;8.97;4.23;;;2.00;99.90;;;;;;5012328;28;20037;-78
2023/02/26 07:32:51;;;;;;;11.13;4.13;;;2.10;99.90;;;;;;5013447;28;20408;-78
2023/02/26 07:35:17;;;;;;;10.57;3.80;;;2.20;99.90;;;;;;5013213;28;20034;-79
2023/02/26 07:37:43;;;;;;;7.80;4.27;;;2.20;99.90;;;;;;5010507;28;20497;-78
2023/02/26 07:40:10;;;;;;;10.43;4.20;;;2.20;99.90;;;;;;5011545;28;20030;-77
2023/02/26 07:42:36;;;;;;;8.80;4.47;;;2.20;99.90;;;;;;5011799;28;20037;-78
2023/02/26 07:45:02;;;;;;;3.57;2.33;;;2.30;99.90;;;;;;5012795;28;20464;-77
2023/02/26 07:47:29;;;;;;;8.27;3.90;;;2.30;99.90;;;;;;5012988;28;20046;-78
2023/02/26 07:49:56;;;;;;;6.13;4.07;;;2.40;99.90;;;;;;5012564;28;20387;-78
2023/02/26 07:52:22;;;;;;;5.47;3.13;;;2.40;99.90;;;;;;5003008;28;20501;-78
2023/02/26 07:54:48;;;;;;;2.80;2.60;;;2.50;99.90;;;;;;5012416;28;20109;-77
2023/02/26 07:57:14;;;;;;;8.27;4.17;;;2.60;99.90;;;;;;5012956;28;20033;-78
2023/02/26 07:59:40;;;;;;;3.97;2.63;;;2.70;99.90;;;;;;5013299;28;20037;-78
2023/02/26 08:02:06;;;;;;;3.07;2.87;;;2.90;99.90;;;;;;5008347;28;20049;-78
2023/02/26 08:04:32;;;;;;;6.27;3.57;;;3.00;99.90;;;;;;5013106;28;20034;-76
2023/02/26 08:07:00;;;;;;;7.70;3.77;;;3.10;99.90;;;;;;5028540;28;20403;-75
2023/02/26 08:09:26;;;;;;;3.43;3.13;;;3.30;99.90;;;;;;5014162;28;20030;-78
2023/02/26 08:11:52;;;;;;;3.47;3.17;;;3.40;99.90;;;;;;5017345;28;20069;-78
2023/02/26 08:14:18;;;;;;;6.13;3.63;;;3.40;99.90;;;;;;5001805;28;20057;-78
2023/02/26 08:16:44;;;;;;;2.70;2.50;;;3.40;99.90;;;;;;5008625;28;20043;-77
2023/02/26 08:19:10;;;;;;;4.87;3.23;;;3.50;99.90;;;;;;4992863;28;20042;-78
2023/02/26 08:21:37;;;;;;;6.47;3.10;;;3.60;99.90;;;;;;5036841;28;20057;-78
2023/02/26 08:24:03;;;;;;;10.93;3.53;;;3.80;99.90;;;;;;5045180;28;20033;-77
2023/02/26 08:26:29;;;;;;;9.23;5.60;;;3.90;99.90;;;;;;5045005;28;20034;-76
2023/02/26 08:28:55;;;;;;;8.47;3.33;;;3.90;99.90;;;;;;5005198;28;20038;-77
2023/02/26 08:31:21;;;;;;;3.33;2.83;;;3.80;99.90;;;;;;4988069;28;20042;-76
2023/02/26 08:33:47;;;;;;;5.60;3.47;;;4.00;99.90;;;;;;4988046;28;20046;-77
2023/02/26 08:36:13;;;;;;;4.27;3.27;;;4.00;99.90;;;;;;4991908;28;20372;-77
2023/02/26 08:38:39;;;;;;;4.23;2.87;;;4.10;99.90;;;;;;4990777;28;20039;-77
2023/02/26 08:41:05;;;;;;;6.20;3.70;;;4.30;99.90;;;;;;4983406;28;20053;-78
2023/02/26 08:43:31;;;;;;;10.00;3.57;;;4.30;99.90;;;;;;4991773;28;20030;-78
2023/02/26 08:45:59;;;;;;;6.03;3.67;;;4.40;99.90;;;;;;5000224;28;20399;-77
2023/02/26 08:48:25;;;;;;;4.00;3.07;;;4.50;99.90;;;;;;5012126;28;20033;-77
2023/02/26 08:50:51;;;;;;;3.37;2.70;;;4.50;99.90;;;;;;5021229;28;20045;-78
2023/02/26 08:53:17;;;;;;;3.87;2.93;;;4.60;99.90;;;;;;5008085;28;20046;-78
2023/02/26 08:55:47;;;;;;;3.63;3.13;;;4.60;99.90;;;;;;5024263;28;20030;-78
2023/02/26 08:58:14;;;;;;;3.35;3.03;;;4.70;99.90;;;;;;5005458;28;20514;-78
2023/02/26 09:00:40;;;;;;;7.50;3.17;;;4.80;99.90;;;;;;5038480;28;20045;-78
2023/02/26 09:03:06;;;;;;;7.13;2.87;;;4.90;99.90;;;;;;5028253;28;20029;-77
2023/02/26 09:05:32;;;;;;;7.07;6.47;;;5.00;99.90;;;;;;5027605;28;20038;-78
2023/02/26 09:07:58;;;;;;;47.73;44.50;;;5.10;99.90;;;;;;5032692;28;20041;-78
2023/02/26 09:10:24;;;;;;;5.00;3.90;;;5.20;99.90;;;;;;5024158;28;20487;-78
2023/02/26 09:12:50;;;;;;;6.20;3.80;;;5.30;99.90;;;;;;5003369;28;20399;-78
2023/02/26 09:15:16;;;;;;;4.03;3.60;;;5.40;99.90;;;;;;5012005;28;20029;-78
2023/02/26 09:17:43;;;;;;;5.50;4.33;;;5.60;99.90;;;;;;5012215;28;20036;-78
2023/02/26 09:20:10;;;;;;;21.47;19.63;;;5.80;99.90;;;;;;5011051;28;20033;-78
2023/02/26 09:22:36;;;;;;;4.37;3.60;;;5.80;99.90;;;;;;4991764;28;20042;-78
2023/02/26 09:25:02;;;;;;;3.77;3.40;;;5.90;99.90;;;;;;4998021;28;20057;-77
2023/02/26 09:27:29;;;;;;;6.93;3.63;;;5.90;99.90;;;;;;5011375;28;20041;-78
2023/02/26 09:29:55;;;;;;;3.33;3.13;;;6.00;99.90;;;;;;5015350;28;20061;-78
2023/02/26 09:32:21;;;;;;;5.43;3.67;;;6.10;99.90;;;;;;5009333;28;20483;-78
2023/02/26 09:34:47;;;;;;;15.80;14.73;;;6.30;99.90;;;;;;5010036;28;20041;-79
2023/02/26 09:37:13;;;;;;;6.43;5.83;;;6.20;99.90;;;;;;5011754;28;20643;-78
2023/02/26 09:39:39;;;;;;;3.57;3.27;;;6.10;99.90;;;;;;5006626;28;21251;-78
2023/02/26 09:42:32;;;;;;;3.90;3.43;;;6.20;99.90;;;;;;5004026;28;20407;-79
2023/02/26 09:44:58;;;;;;;3.63;3.33;;;6.20;99.90;;;;;;4992860;28;20031;-78
2023/02/26 09:47:36;;;;;;;17.03;4.13;;;6.40;99.90;;;;;;5020370;28;20034;-78
2023/02/26 09:50:17;;;;;;;4.30;4.00;;;6.50;99.90;;;;;;5006138;28;20035;-77
2023/02/26 09:52:59;;;;;;;;;;;6.50;99.90;;;;;;5023847;28;20030;-77
2023/02/26 09:55:34;;;;;;;4.43;4.03;;;6.40;99.90;;;;;;5011738;28;20395;-77
2023/02/26 09:58:03;;;;;;;3.97;3.57;;;6.50;99.90;;;;;;4991479;28;20506;-77
2023/02/26 10:00:47;;;;;;;4.20;3.80;;;6.60;99.90;;;;;;4993236;28;20408;-77
2023/02/26 10:03:31;;;;;;;3.70;3.40;;;6.50;99.90;;;;;;5007820;28;20034;-78
2023/02/26 10:06:25;;;;;;;15.73;14.80;;;6.50;99.90;;;;;;5019649;28;20041;-79
2023/02/26 10:09:07;;;;;;;19.60;18.17;;;6.60;99.90;;;;;;5029314;28;20023;-78
2023/02/26 10:11:33;;;;;;;;;;;6.60;99.90;;;;;;5006544;28;20476;-78
2023/02/26 10:14:03;;;;;;;6.67;4.27;;;6.70;99.90;;;;;;5013052;28;19952;-78
2023/02/26 10:16:34;;;;;;;21.27;8.88;;;6.70;99.90;;;;;;5026592;28;20041;-80
2023/02/26 10:19:14;;;;;;;8.70;7.57;;;6.70;99.90;;;;;;5028398;28;20387;-80
2023/02/26 10:21:46;;;;;;;26.40;23.60;;;6.80;99.90;;;;;;5007208;28;20388;-78
2023/02/26 10:24:18;;;;;;;7.20;5.00;;;6.80;99.90;;;;;;5017377;28;20493;-78
2023/02/26 10:26:57;;;;;;;5.60;4.77;;;7.00;99.90;;;;;;5009719;28;20029;-78
2023/02/26 10:29:42;;;;;;;11.43;5.43;;;7.10;99.90;;;;;;5009947;28;20057;-81
2023/02/26 10:32:33;;;;;;;4.50;4.10;;;7.10;99.90;;;;;;5023708;28;20483;-79
2023/02/26 10:35:07;;;;;;;5.03;4.63;;;7.30;99.90;;;;;;5007005;28;20413;-81
2023/02/26 10:37:49;;;;;;;7.20;4.37;;;7.30;99.90;;;;;;5014836;28;20375;-81
2023/02/26 10:40:43;;;;;;;3.70;3.40;;;7.40;99.90;;;;;;5014443;28;20606;-80
2023/02/26 10:43:34;;;;;;;10.17;9.27;;;7.30;99.90;;;;;;5022908;28;20040;-81
2023/02/26 10:46:36;;;;;;;9.10;4.00;;;7.20;99.90;;;;;;5013384;28;20033;-80
2023/02/26 10:49:29;;;;;;;45.50;38.93;;;7.10;99.90;;;;;;4994707;28;20034;-78
2023/02/26 10:51:56;;;;;;;5.50;5.00;;;7.10;99.90;;;;;;5013772;28;20049;-80
2023/02/26 10:54:34;;;;;;;4.77;3.83;;;7.30;99.90;;;;;;4992581;28;20054;-80
2023/02/26 10:57:00;;;;;;;5.93;4.23;;;7.30;99.90;;;;;;5010017;28;20402;-79
2023/02/26 10:59:26;;;;;;;4.90;4.40;;;7.30;99.90;;;;;;5011479;28;20046;-79
2023/02/26 11:01:52;;;;;;;12.60;4.03;;;7.30;99.90;;;;;;5015877;28;20038;-80
2023/02/26 11:04:22;;;;;;;4.90;4.00;;;7.10;99.90;;;;;;5006093;28;20522;-80
2023/02/26 11:07:01;;;;;;;4.77;4.10;;;7.20;99.90;;;;;;5023868;28;20037;-78
2023/02/26 11:09:35;;;;;;;4.70;4.30;;;7.30;99.90;;;;;;5012938;28;20081;-78
2023/02/26 11:12:19;;;;;;;9.70;4.97;;;7.40;99.90;;;;;;5008318;28;20391;-78
2023/02/26 11:14:46;;;;;;;7.00;5.00;;;7.60;99.90;;;;;;5023800;28;20050;-78
2023/02/26 11:17:26;;;;;;;5.93;5.13;;;7.60;99.90;;;;;;5011114;28;20041;-79
2023/02/26 11:20:00;;;;;;;14.30;4.63;;;7.70;99.90;;;;;;5010555;28;20045;-78
2023/02/26 11:22:28;;;;;;;8.57;4.10;;;7.70;99.90;;;;;;5003712;28;20070;-78
2023/02/26 11:24:54;;;;;;;4.27;4.00;;;7.50;99.90;;;;;;5008676;28;20053;-80
2023/02/26 11:27:30;;;;;;;14.17;4.13;;;7.30;99.90;;;;;;5010388;28;20033;-78
2023/02/26 11:29:58;;;;;;;10.35;3.70;;;7.30;99.90;;;;;;5042270;28;20038;-79
2023/02/26 11:32:35;;;;;;;4.03;3.73;;;7.20;99.90;;;;;;5009800;28;20049;-79
2023/02/26 11:35:01;;;;;;;9.23;8.50;;;7.00;99.90;;;;;;4994085;28;20037;-78
2023/02/26 11:37:36;;;;;;;3.90;3.60;;;6.90;99.90;;;;;;4994089;28;20023;-79
2023/02/26 11:40:26;;;;;;;3.77;3.47;;;6.80;99.90;;;;;;5025620;28;20026;-78
2023/02/26 11:42:54;;;;;;;4.20;3.80;;;6.70;99.90;;;;;;5008926;28;20403;-78
2023/02/26 11:45:20;;;;;;;6.57;3.60;;;6.70;99.90;;;;;;5011379;28;20033;-79
2023/02/26 11:47:52;;;;;;;13.10;10.23;;;6.60;99.90;;;;;;5022389;28;20483;-79
2023/02/26 11:50:21;;;;;;;4.30;3.93;;;6.70;99.90;;;;;;5020754;28;20026;-78
2023/02/26 11:52:54;;;;;;;5.07;4.10;;;7.00;99.90;;;;;;5007519;28;20030;-78
2023/02/26 11:55:28;;;;;;;6.75;4.70;;;7.40;99.90;;;;;;5007181;28;20491;-79
2023/02/26 11:57:54;;;;;;;8.23;5.97;;;7.50;99.90;;;;;;5031351;28;20030;-78
2023/02/26 12:00:28;;;;;;;7.33;5.10;;;7.40;99.90;;;;;;5026520;28;20388;-78
2023/02/26 12:03:03;;;;;;;7.50;5.80;;;7.20;99.70;;;;;;5043397;28;20026;-78
2023/02/26 12:05:30;;;;;;;5.90;4.60;;;7.30;99.90;;;;;;5020271;28;20542;-79
2023/02/26 12:07:57;;;;;;;5.40;4.30;;;7.50;99.90;;;;;;5004641;28;20033;-80
2023/02/26 12:10:42;;;;;;;4.63;4.23;;;7.60;98.00;;;;;;5009711;28;20042;-79
2023/02/26 12:13:30;;;;;;;9.50;5.07;;;7.70;98.20;;;;;;5011482;28;20026;-79
2023/02/26 12:16:05;;;;;;;4.43;4.13;;;7.90;97.30;;;;;;5023087;28;20038;-79
2023/02/26 12:18:37;;;;;;;5.47;4.55;;;7.80;96.30;;;;;;5027824;28;20042;-78
2023/02/26 12:21:34;;;;;;;13.10;12.25;;;7.90;95.90;;;;;;5009872;28;20046;-79
2023/02/26 12:24:28;;;;;;;6.60;4.77;;;7.80;95.90;;;;;;5008606;28;20030;-78
2023/02/26 12:27:02;;;;;;;5.35;4.57;;;7.90;96.20;;;;;;5010957;28;20042;-78
2023/02/26 12:29:28;;;;;;;5.20;4.70;;;7.90;95.50;;;;;;5018691;28;20392;-80
2023/02/26 12:32:19;;;;;;;4.65;4.22;;;8.00;95.40;;;;;;5010459;28;20041;-80
2023/02/26 12:35:20;;;;;;;4.78;4.38;;;8.10;95.20;;;;;;4998617;28;20050;-80
2023/02/26 12:38:09;;;;;;;7.20;6.53;;;8.00;94.60;;;;;;5021092;28;20049;-80
2023/02/26 12:41:03;;;;;;;9.90;9.15;;;7.90;94.80;;;;;;5008151;28;20049;-79
2023/02/26 12:43:47;;;;;;;5.03;4.13;;;7.90;94.30;;;;;;5011215;28;20026;-80
2023/02/26 12:46:38;;;;;;;5.30;4.57;;;7.80;94.70;;;;;;5010365;28;20034;-79
2023/02/26 12:49:16;;;;;;;13.53;12.70;;;7.80;94.50;;;;;;4998875;28;20056;-79
2023/02/26 12:52:17;;;;;;;4.73;4.27;;;7.90;91.40;;;;;;5008711;28;20387;-79
2023/02/26 12:55:03;;;;;;;;;;;7.70;90.10;;;;;;5022105;28;20042;-79
2023/02/26 12:58:03;;;;;;;7.00;4.90;;;7.60;90.20;;;;;;4993607;28;19909;-79
2023/02/26 13:01:05;;;;;;;14.53;13.67;;;7.80;91.00;;;;;;4993413;28;20041;-79
2023/02/26 13:04:04;;;;;;;4.97;4.68;;;7.70;90.50;;;;;;5009988;28;20487;-79
2023/02/26 13:06:52;;;;;;;4.68;4.38;;;7.80;90.50;;;;;;5009888;28;20034;-79
2023/02/26 13:09:49;;;;;;;14.35;13.50;;;8.10;91.10;;;;;;5008870;28;20029;-79
2023/02/26 13:12:42;;;;;;;5.32;4.82;;;8.00;90.40;;;;;;4992474;28;20030;-79
2023/02/26 13:15:17;;;;;;;8.77;7.93;;;7.90;90.40;;;;;;4994084;28;20065;-79
2023/02/26 13:17:55;;;;;;;5.18;4.70;;;7.90;90.50;;;;;;5011495;28;20499;-79
2023/02/26 13:20:26;;;;;;;12.45;5.53;;;8.00;90.20;;;;;;5043675;28;20029;-79